createdAt,value
2019-05-22T00:02:30.603Z,22.03
2019-05-22T00:07:32.295Z,20.00
2019-05-22T00:12:46.085Z,16.17
2019-05-22T00:17:37.858Z,14.80
2019-05-22T00:22:39.358Z,16.87
2019-05-22T00:27:41.365Z,14.80
2019-05-22T00:32:43.659Z,14.57
2019-05-22T00:37:45.182Z,12.73
2019-05-22T00:43:01.173Z,14.67
2019-05-22T00:47:50.794Z,12.63
2019-05-22T00:52:52.894Z,15.90
2019-05-22T00:57:54.786Z,20.63
2019-05-22T01:02:56.795Z,15.70
2019-05-22T01:07:58.314Z,22.07
2019-05-22T01:12:59.870Z,16.20
2019-05-22T01:18:02.325Z,17.70
2019-05-22T01:23:04.112Z,14.63
2019-05-22T01:28:06.020Z,17.83
2019-05-22T01:33:08.229Z,20.73
2019-05-22T01:38:10.006Z,19.47
2019-05-22T01:43:11.876Z,24.13
2019-05-22T01:48:15.682Z,15.30
2019-05-22T01:53:17.218Z,13.93
2019-05-22T01:58:19.343Z,12.40
2019-05-22T02:03:21.104Z,15.53
2019-05-22T02:08:22.576Z,11.80
2019-05-22T02:13:31.514Z,13.30
2019-05-22T02:18:33.663Z,14.90
2019-05-22T02:23:35.115Z,12.37
2019-05-22T02:28:36.599Z,15.00
2019-05-22T02:33:37.952Z,16.63
2019-05-22T02:38:39.565Z,13.60
2019-05-22T02:43:41.088Z,16.93
2019-05-22T02:48:42.706Z,18.93
2019-05-22T02:53:44.255Z,16.00
2019-05-22T02:58:45.704Z,11.43
2019-05-22T03:03:47.190Z,14.67
2019-05-22T03:09:03.680Z,13.03
2019-05-22T03:14:05.225Z,13.10
2019-05-22T03:19:09.229Z,11.13
2019-05-22T03:24:10.824Z,12.53
2019-05-22T03:29:12.373Z,10.23
2019-05-22T03:34:13.879Z,11.73
2019-05-22T03:39:16.142Z,12.97
2019-05-22T03:44:17.652Z,14.30
2019-05-22T03:49:29.903Z,11.83
2019-05-22T03:54:22.593Z,12.15
2019-05-22T03:59:24.398Z,16.60
2019-05-22T04:04:34.323Z,12.40
2019-05-22T04:09:36.116Z,10.83
2019-05-22T04:14:38.147Z,12.53
2019-05-22T04:19:49.316Z,13.57
2019-05-22T04:24:43.070Z,8.83
2019-05-22T04:29:45.842Z,9.53
2019-05-22T04:34:47.390Z,8.23
2019-05-22T04:39:48.883Z,7.50
2019-05-22T04:45:06.930Z,8.83
2019-05-22T04:50:09.395Z,11.13
2019-05-22T04:55:11.720Z,12.63
2019-05-22T05:00:13.272Z,12.13
2019-05-22T05:05:16.009Z,13.33
2019-05-22T05:10:17.889Z,9.40
2019-05-22T05:15:20.462Z,9.47
2019-05-22T05:20:22.969Z,11.47
2019-05-22T05:25:24.618Z,10.20
2019-05-22T05:30:26.168Z,13.23
2019-05-22T05:35:28.015Z,11.83
2019-05-22T05:40:30.419Z,12.83
2019-05-22T05:45:31.947Z,11.93
2019-05-22T05:50:39.700Z,8.73
2019-05-22T05:55:58.921Z,8.37
2019-05-22T06:01:07.153Z,8.13
2019-05-22T06:06:44.883Z,8.70
2019-05-22T06:11:46.746Z,9.17
2019-05-22T06:17:30.518Z,9.80
2019-05-22T06:22:32.016Z,9.90
2019-05-22T06:27:34.169Z,9.97
2019-05-22T06:33:15.162Z,9.80
2019-05-22T06:38:46.099Z,10.93
2019-05-22T06:44:36.308Z,10.37
2019-05-22T06:49:41.797Z,8.73
2019-05-22T06:54:43.739Z,10.77
2019-05-22T06:59:46.446Z,11.23
2019-05-22T07:04:48.577Z,10.67
2019-05-22T07:09:50.078Z,12.97
2019-05-22T07:15:20.879Z,12.20
2019-05-22T07:20:23.047Z,11.00
2019-05-22T07:25:24.491Z,10.80
2019-05-22T07:30:26.327Z,9.13
2019-05-22T07:35:44.139Z,9.90
2019-05-22T07:40:31.934Z,9.30
2019-05-22T07:45:33.784Z,11.03
2019-05-22T07:50:35.282Z,11.43
2019-05-22T07:55:36.834Z,12.00
2019-05-22T08:00:40.879Z,11.50
2019-05-22T08:05:44.263Z,13.58
2019-05-22T08:10:45.766Z,10.72
2019-05-22T08:15:48.181Z,9.80
2019-05-22T08:20:50.310Z,13.60
2019-05-22T08:25:52.379Z,10.95
2019-05-22T08:30:54.021Z,9.23
2019-05-22T08:35:59.310Z,11.68
2019-05-22T08:41:01.032Z,11.88
2019-05-22T08:46:02.942Z,11.15
2019-05-22T08:51:05.011Z,12.25
2019-05-22T08:56:06.575Z,11.75
2019-05-22T09:01:09.067Z,16.70
2019-05-22T09:06:10.628Z,13.72
2019-05-22T09:11:12.558Z,12.45
2019-05-22T09:16:14.278Z,13.75
2019-05-22T09:21:16.167Z,12.65
2019-05-22T09:26:17.701Z,12.25
2019-05-22T09:31:19.572Z,11.25
2019-05-22T09:36:20.541Z,13.00
2019-05-22T09:41:22.189Z,13.80
2019-05-22T09:46:24.013Z,11.25
2019-05-22T09:51:25.687Z,12.68
2019-05-22T09:56:27.354Z,11.53
2019-05-22T10:01:28.860Z,15.88
2019-05-22T10:06:31.022Z,12.47
2019-05-22T10:11:32.917Z,12.90
2019-05-22T10:16:34.531Z,12.68
2019-05-22T10:21:36.474Z,12.03
2019-05-22T10:26:38.200Z,8.73
2019-05-22T10:31:39.974Z,12.07
2019-05-22T10:36:43.255Z,19.85
2019-05-22T10:41:44.901Z,11.18
2019-05-22T10:46:46.399Z,12.35
2019-05-22T10:51:48.352Z,11.38
2019-05-22T10:56:49.863Z,14.33
2019-05-22T11:01:51.546Z,12.23
2019-05-22T11:06:58.071Z,12.70
2019-05-22T11:11:59.570Z,12.03
2019-05-22T11:17:01.620Z,12.50
2019-05-22T11:22:03.234Z,10.13
2019-05-22T11:27:04.743Z,10.15
2019-05-22T11:32:06.540Z,9.90
2019-05-22T11:37:08.007Z,10.55
2019-05-22T11:42:09.628Z,9.48
2019-05-22T11:47:11.533Z,9.85
2019-05-22T11:52:13.325Z,9.45
2019-05-22T11:57:15.207Z,7.95
2019-05-22T12:02:16.749Z,7.85
2019-05-22T12:07:18.235Z,8.23
2019-05-22T12:12:20.093Z,7.72
2019-05-22T12:17:36.895Z,8.00
2019-05-22T12:22:25.123Z,7.70
2019-05-22T12:27:26.643Z,6.33
2019-05-22T12:32:28.287Z,11.05
2019-05-22T12:37:30.356Z,8.70
2019-05-22T12:42:31.809Z,7.62
2019-05-22T12:47:33.666Z,9.75
2019-05-22T12:52:35.529Z,10.82
2019-05-22T12:57:37.380Z,11.57
2019-05-22T13:02:42.469Z,13.30
2019-05-22T13:07:42.769Z,12.15
2019-05-22T13:12:44.276Z,8.98
2019-05-22T13:17:45.724Z,10.80
2019-05-22T13:22:47.775Z,11.80
2019-05-22T13:27:50.489Z,15.03
2019-05-22T13:32:52.553Z,11.90
2019-05-22T13:37:54.363Z,11.10
2019-05-22T13:42:56.938Z,13.32
2019-05-22T13:47:58.527Z,15.32
2019-05-22T13:53:01.058Z,23.45
2019-05-22T13:58:02.592Z,24.72
2019-05-22T14:03:04.216Z,23.77
2019-05-22T14:08:05.747Z,24.98
2019-05-22T14:13:07.947Z,22.48
2019-05-22T14:18:09.848Z,19.37
2019-05-22T14:23:11.446Z,17.60
2019-05-22T14:28:13.021Z,20.60
2019-05-22T14:33:14.840Z,14.35
2019-05-22T14:38:17.053Z,10.50
2019-05-22T14:43:25.414Z,9.25
2019-05-22T14:48:22.947Z,10.15
2019-05-22T14:53:24.661Z,9.03
2019-05-22T14:58:26.241Z,14.75
2019-05-22T15:03:27.778Z,14.95
2019-05-22T15:08:29.362Z,9.50
2019-05-22T15:13:31.091Z,8.58
2019-05-22T15:18:32.662Z,8.30
2019-05-22T15:23:34.843Z,11.68
2019-05-22T15:28:36.316Z,12.82
2019-05-22T15:33:38.087Z,12.03
2019-05-22T15:38:40.824Z,11.60
2019-05-22T15:43:42.375Z,12.90
2019-05-22T15:48:45.248Z,7.15
2019-05-22T15:53:46.869Z,9.70
2019-05-22T15:58:49.590Z,8.78
2019-05-22T16:03:51.529Z,7.35
2019-05-22T16:08:53.721Z,7.65
2019-05-22T16:13:55.742Z,7.08
2019-05-22T16:19:01.411Z,10.08
2019-05-22T16:24:03.318Z,7.67
2019-05-22T16:29:04.945Z,4.12
2019-05-22T16:34:06.524Z,5.83
2019-05-22T16:39:08.800Z,4.87
2019-05-22T16:44:11.000Z,4.58
2019-05-22T16:49:12.648Z,9.23
2019-05-22T16:54:14.058Z,11.35
2019-05-22T16:59:15.811Z,9.98
2019-05-22T17:04:17.239Z,5.67
2019-05-22T17:09:18.678Z,5.70
2019-05-22T17:14:20.277Z,4.78
2019-05-22T17:19:27.012Z,3.15
2019-05-22T17:24:24.943Z,5.03
2019-05-22T17:29:26.416Z,6.97
2019-05-22T17:34:28.144Z,5.42
2019-05-22T17:39:30.025Z,5.20
2019-05-22T17:44:31.830Z,5.35
2019-05-22T17:49:33.300Z,5.65
2019-05-22T17:54:34.794Z,6.03
2019-05-22T17:59:36.134Z,6.50
2019-05-22T18:04:38.106Z,7.95
2019-05-22T18:09:39.631Z,6.10
2019-05-22T18:14:41.612Z,7.25
2019-05-22T18:19:43.699Z,8.30
2019-05-22T18:24:45.258Z,7.20
2019-05-22T18:29:47.185Z,6.75
2019-05-22T18:34:48.846Z,8.08
2019-05-22T18:39:50.774Z,6.70
2019-05-22T18:44:52.290Z,9.70
2019-05-22T18:49:54.094Z,11.40
2019-05-22T18:54:55.758Z,7.90
2019-05-22T19:00:02.806Z,12.03
2019-05-22T19:05:00.850Z,7.78
2019-05-22T19:10:02.809Z,9.28
2019-05-22T19:15:04.444Z,8.28
2019-05-22T19:20:06.153Z,10.45
2019-05-22T19:25:07.703Z,9.10
2019-05-22T19:30:09.583Z,9.75
2019-05-22T19:35:13.544Z,8.53
2019-05-22T19:40:15.952Z,8.98
2019-05-22T19:45:18.171Z,11.95
2019-05-22T19:50:23.701Z,10.50
2019-05-22T19:55:24.921Z,7.92
2019-05-22T20:00:27.145Z,11.93
2019-05-22T20:05:28.791Z,9.70
2019-05-22T20:10:30.788Z,7.03
2019-05-22T20:15:32.515Z,10.23
2019-05-22T20:20:34.135Z,7.22
2019-05-22T20:25:35.701Z,13.03
2019-05-22T20:30:37.305Z,7.78
2019-05-22T20:35:38.828Z,10.40
2019-05-22T20:40:40.521Z,9.65
2019-05-22T20:45:42.147Z,10.57
2019-05-22T20:50:43.710Z,8.35
2019-05-22T20:55:45.229Z,10.13
2019-05-22T21:00:47.440Z,11.50
2019-05-22T21:05:49.280Z,11.53
2019-05-22T21:10:50.721Z,9.63
2019-05-22T21:15:53.375Z,9.03
2019-05-22T21:20:55.776Z,10.13
2019-05-22T21:25:57.651Z,9.17
2019-05-22T21:30:59.163Z,11.50
2019-05-22T21:36:01.132Z,9.83
2019-05-22T21:41:02.930Z,9.87
2019-05-22T21:46:04.381Z,8.43
2019-05-22T21:51:06.709Z,9.47
2019-05-22T21:56:08.248Z,8.57
2019-05-22T22:01:09.862Z,13.90
2019-05-22T22:06:11.761Z,9.00
2019-05-22T22:11:13.208Z,12.97
2019-05-22T22:16:14.740Z,11.13
2019-05-22T22:21:16.269Z,8.93
2019-05-22T22:26:25.430Z,11.40
2019-05-22T22:31:21.133Z,11.93
2019-05-22T22:36:22.639Z,11.70
2019-05-22T22:41:24.393Z,11.77
2019-05-22T22:46:28.613Z,11.23
2019-05-22T22:51:30.173Z,11.57
2019-05-22T22:56:31.565Z,10.10
2019-05-22T23:01:33.179Z,10.50
2019-05-22T23:06:36.233Z,11.23
2019-05-22T23:11:38.627Z,12.40
2019-05-22T23:16:40.479Z,10.10
2019-05-22T23:21:40.988Z,12.00
2019-05-22T23:26:42.505Z,14.00
2019-05-22T23:31:44.053Z,11.07
2019-05-22T23:36:45.576Z,13.43
2019-05-22T23:41:47.668Z,11.87
2019-05-22T23:46:49.212Z,13.27
2019-05-22T23:51:50.704Z,11.97
2019-05-22T23:56:52.128Z,17.63
